sensor_id;sensor_type;location;lat;lon;timestamp;pressure;altitude;pressure_sealevel;temperature;humidity
14242;BME280;7205;50.864;12.766;2023-02-12T00:02:06;99463.44;;;6.75;100.00
14242;BME280;7205;50.864;12.766;2023-02-12T00:04:33;99458.28;;;6.74;100.00
14242;BME280;7205;50.864;12.766;2023-02-12T00:07:00;99469.41;;;6.77;100.00
14242;BME280;7205;50.864;12.766;2023-02-12T00:09:28;99462.50;;;6.76;100.00
14242;BME280;7205;50.864;12.766;2023-02-12T00:11:55;99467.75;;;6.76;100.00
14242;BME280;7205;50.864;12.766;2023-02-12T00:14:22;99459.78;;;6.78;100.00
14242;BME280;7205;50.864;12.766;2023-02-12T00:16:49;99459.66;;;6.79;100.00
14242;BME280;7205;50.864;12.766;2023-02-12T00:19:16;99466.56;;;6.80;100.00
14242;BME280;7205;50.864;12.766;2023-02-12T00:21:43;99464.81;;;6.81;100.00
14242;BME280;7205;50.864;12.766;2023-02-12T00:24:09;99457.78;;;6.81;100.00
14242;BME280;7205;50.864;12.766;2023-02-12T00:26:38;99461.31;;;6.80;100.00
14242;BME280;7205;50.864;12.766;2023-02-12T00:29:05;99455.25;;;6.80;100.00
14242;BME280;7205;50.864;12.766;2023-02-12T00:31:32;99455.25;;;6.80;100.00
14242;BME280;7205;50.864;12.766;2023-02-12T00:33:59;99460.50;;;6.80;100.00
14242;BME280;7205;50.864;12.766;2023-02-12T00:36:28;99463.03;;;6.81;100.00
14242;BME280;7205;50.864;12.766;2023-02-12T00:38:56;99468.16;;;6.83;100.00
14242;BME280;7205;50.864;12.766;2023-02-12T00:41:24;99456.94;;;6.81;100.00
14242;BME280;7205;50.864;12.766;2023-02-12T00:43:56;99457.78;;;6.81;100.00
14242;BME280;7205;50.864;12.766;2023-02-12T00:46:23;99463.94;;;6.80;100.00
14242;BME280;7205;50.864;12.766;2023-02-12T00:48:50;99459.66;;;6.79;100.00
14242;BME280;7205;50.864;12.766;2023-02-12T00:51:19;99466.34;;;6.83;100.00
14242;BME280;7205;50.864;12.766;2023-02-12T00:53:46;99454.31;;;6.81;100.00
14242;BME280;7205;50.864;12.766;2023-02-12T00:56:13;99467.31;;;6.82;100.00
14242;BME280;7205;50.864;12.766;2023-02-12T00:58:40;99463.66;;;6.85;100.00
14242;BME280;7205;50.864;12.766;2023-02-12T01:01:08;99463.66;;;6.85;100.00
14242;BME280;7205;50.864;12.766;2023-02-12T01:03:35;99467.84;;;6.87;100.00
14242;BME280;7205;50.864;12.766;2023-02-12T01:06:03;99474.75;;;6.88;100.00
14242;BME280;7205;50.864;12.766;2023-02-12T01:08:34;99476.44;;;6.89;100.00
14242;BME280;7205;50.864;12.766;2023-02-12T01:11:04;99481.81;;;6.88;100.00
14242;BME280;7205;50.864;12.766;2023-02-12T01:13:32;99480.97;;;6.87;100.00
14242;BME280;7205;50.864;12.766;2023-02-12T01:16:01;99484.56;;;6.86;100.00
14242;BME280;7205;50.864;12.766;2023-02-12T01:18:29;99489.91;;;6.85;100.00
14242;BME280;7205;50.864;12.766;2023-02-12T01:20:56;99489.91;;;6.85;100.00
14242;BME280;7205;50.864;12.766;2023-02-12T01:23:24;99482.75;;;6.87;100.00
14242;BME280;7205;50.864;12.766;2023-02-12T01:25:52;99477.59;;;6.85;100.00
14242;BME280;7205;50.864;12.766;2023-02-12T01:28:19;99488.00;;;6.87;100.00
14242;BME280;7205;50.864;12.766;2023-02-12T01:30:46;99492.31;;;6.88;100.00
14242;BME280;7205;50.864;12.766;2023-02-12T01:33:13;99492.94;;;6.91;100.00
14242;BME280;7205;50.864;12.766;2023-02-12T01:35:41;99491.88;;;6.94;100.00
14242;BME280;7205;50.864;12.766;2023-02-12T01:38:08;99489.25;;;6.94;100.00
14242;BME280;7205;50.864;12.766;2023-02-12T01:40:35;99480.53;;;6.93;100.00
14242;BME280;7205;50.864;12.766;2023-02-12T01:43:03;99476.97;;;6.94;100.00
14242;BME280;7205;50.864;12.766;2023-02-12T01:45:49;99484.84;;;6.94;100.00
14242;BME280;7205;50.864;12.766;2023-02-12T01:48:18;99484.97;;;6.93;100.00
14242;BME280;7205;50.864;12.766;2023-02-12T01:50:48;99490.09;;;6.94;100.00
14242;BME280;7205;50.864;12.766;2023-02-12T01:53:17;99491.88;;;6.94;100.00
14242;BME280;7205;50.864;12.766;2023-02-12T01:55:50;99502.38;;;6.94;100.00
14242;BME280;7205;50.864;12.766;2023-02-12T01:58:18;99489.16;;;6.95;100.00
14242;BME280;7205;50.864;12.766;2023-02-12T02:00:47;99491.75;;;6.95;100.00
14242;BME280;7205;50.864;12.766;2023-02-12T02:03:14;99491.88;;;6.94;100.00
14242;BME280;7205;50.864;12.766;2023-02-12T02:05:48;99496.19;;;6.95;100.00
14242;BME280;7205;50.864;12.766;2023-02-12T02:08:19;99501.25;;;6.98;100.00
14242;BME280;7205;50.864;12.766;2023-02-12T02:10:46;99497.75;;;6.97;100.00
14242;BME280;7205;50.864;12.766;2023-02-12T02:13:13;99495.13;;;6.97;100.00
14242;BME280;7205;50.864;12.766;2023-02-12T02:16:09;99494.28;;;6.97;100.00
14242;BME280;7205;50.864;12.766;2023-02-12T02:19:23;99501.13;;;6.99;100.00
14242;BME280;7205;50.864;12.766;2023-02-12T02:22:25;99501.25;;;6.98;100.00
14242;BME280;7205;50.864;12.766;2023-02-12T02:25:22;99509.84;;;7.00;100.00
14242;BME280;7205;50.864;12.766;2023-02-12T02:28:05;99494.19;;;6.98;100.00
14242;BME280;7205;50.864;12.766;2023-02-12T02:30:41;99495.88;;;6.99;100.00
14242;BME280;7205;50.864;12.766;2023-02-12T02:33:18;99489.66;;;7.00;100.00
14242;BME280;7205;50.864;12.766;2023-02-12T02:35:52;99483.59;;;7.00;100.00
14242;BME280;7205;50.864;12.766;2023-02-12T02:38:24;99480.97;;;7.00;100.00
14242;BME280;7205;50.864;12.766;2023-02-12T02:41:07;99484.41;;;7.00;100.00
14242;BME280;7205;50.864;12.766;2023-02-12T02:43:48;99480.00;;;7.01;100.00
14242;BME280;7205;50.864;12.766;2023-02-12T02:46:28;99482.00;;;6.97;100.00
14242;BME280;7205;50.864;12.766;2023-02-12T03:23:03;99502.78;;;7.00;100.00
14242;BME280;7205;50.864;12.766;2023-02-12T03:25:34;99503.53;;;7.02;100.00
14242;BME280;7205;50.864;12.766;2023-02-12T03:28:06;99505.19;;;7.03;100.00
14242;BME280;7205;50.864;12.766;2023-02-12T03:30:40;99494.69;;;7.03;100.00
14242;BME280;7205;50.864;12.766;2023-02-12T03:33:17;99503.41;;;7.04;100.00
14242;BME280;7205;50.864;12.766;2023-02-12T03:35:54;99517.19;;;7.07;100.00
14242;BME280;7205;50.864;12.766;2023-02-12T03:38:33;99515.50;;;7.06;100.00
14242;BME280;7205;50.864;12.766;2023-02-12T03:41:04;99518.25;;;7.05;100.00
14242;BME280;7205;50.864;12.766;2023-02-12T03:43:40;99518.13;;;7.06;100.00
14242;BME280;7205;50.864;12.766;2023-02-12T03:46:17;99526.22;;;7.03;100.00
14242;BME280;7205;50.864;12.766;2023-02-12T03:48:56;99527.16;;;7.02;100.00
14242;BME280;7205;50.864;12.766;2023-02-12T03:51:29;99527.06;;;7.04;100.00
14242;BME280;7205;50.864;12.766;2023-02-12T03:54:00;99539.88;;;7.08;100.00
14242;BME280;7205;50.864;12.766;2023-02-12T03:56:32;99532.09;;;7.07;100.00
14242;BME280;7205;50.864;12.766;2023-02-12T03:59:00;99536.31;;;7.09;100.00
14242;BME280;7205;50.864;12.766;2023-02-12T04:01:28;99540.72;;;7.09;100.00
14242;BME280;7205;50.864;12.766;2023-02-12T04:03:56;99546.81;;;7.09;100.00
14242;BME280;7205;50.864;12.766;2023-02-12T04:06:25;99547.56;;;7.11;100.00
14242;BME280;7205;50.864;12.766;2023-02-12T04:08:54;99557.00;;;7.14;100.00
14242;BME280;7205;50.864;12.766;2023-02-12T04:11:35;99549.34;;;7.11;100.00
14242;BME280;7205;50.864;12.766;2023-02-12T04:14:15;99559.72;;;7.12;100.00
14242;BME280;7205;50.864;12.766;2023-02-12T04:16:50;99570.88;;;7.16;100.00
14242;BME280;7205;50.864;12.766;2023-02-12T04:19:24;99567.41;;;7.15;100.00
14242;BME280;7205;50.864;12.766;2023-02-12T04:22:10;99568.47;;;7.13;100.00
14242;BME280;7205;50.864;12.766;2023-02-12T04:24:49;99562.47;;;7.11;100.00
14242;BME280;7205;50.864;12.766;2023-02-12T04:27:21;99560.69;;;7.11;100.00
14242;BME280;7205;50.864;12.766;2023-02-12T04:29:54;99571.09;;;7.13;100.00
14242;BME280;7205;50.864;12.766;2023-02-12T04:32:27;99559.50;;;7.15;100.00
14242;BME280;7205;50.864;12.766;2023-02-12T04:34:58;99561.31;;;7.15;100.00
14242;BME280;7205;50.864;12.766;2023-02-12T04:37:32;99563.94;;;7.15;100.00
14242;BME280;7205;50.864;12.766;2023-02-12T04:40:04;99563.94;;;7.15;100.00
14242;BME280;7205;50.864;12.766;2023-02-12T04:42:41;99558.69;;;7.15;100.00
14242;BME280;7205;50.864;12.766;2023-02-12T04:45:09;99562.03;;;7.17;100.00
14242;BME280;7205;50.864;12.766;2023-02-12T04:47:37;99559.28;;;7.18;100.00
14242;BME280;7205;50.864;12.766;2023-02-12T04:50:04;99562.78;;;7.19;100.00
14242;BME280;7205;50.864;12.766;2023-02-12T04:52:31;99559.28;;;7.18;100.00
14242;BME280;7205;50.864;12.766;2023-02-12T04:54:58;99561.91;;;7.18;100.00
14242;BME280;7205;50.864;12.766;2023-02-12T04:57:25;99556.66;;;7.18;100.00
14242;BME280;7205;50.864;12.766;2023-02-12T04:59:53;99563.63;;;7.19;100.00
14242;BME280;7205;50.864;12.766;2023-02-12T05:02:20;99566.13;;;7.21;100.00
14242;BME280;7205;50.864;12.766;2023-02-12T05:04:47;99568.66;;;7.22;100.00
14242;BME280;7205;50.864;12.766;2023-02-12T05:07:14;99564.25;;;7.23;100.00
14242;BME280;7205;50.864;12.766;2023-02-12T05:09:41;99560.78;;;7.22;100.00
14242;BME280;7205;50.864;12.766;2023-02-12T05:12:08;99570.31;;;7.23;100.00
14242;BME280;7205;50.864;12.766;2023-02-12T05:14:35;99567.69;;;7.23;100.00
14242;BME280;7205;50.864;12.766;2023-02-12T05:17:03;99572.03;;;7.24;100.00
14242;BME280;7205;50.864;12.766;2023-02-12T05:19:30;99572.03;;;7.24;100.00
14242;BME280;7205;50.864;12.766;2023-02-12T05:21:56;99565.81;;;7.25;100.00
14242;BME280;7205;50.864;12.766;2023-02-12T05:24:23;99575.28;;;7.28;100.00
14242;BME280;7205;50.864;12.766;2023-02-12T05:26:50;99572.53;;;7.29;100.00
14242;BME280;7205;50.864;12.766;2023-02-12T05:29:17;99576.72;;;7.32;100.00
14242;BME280;7205;50.864;12.766;2023-02-12T05:31:44;99571.47;;;7.32;100.00
14242;BME280;7205;50.864;12.766;2023-02-12T05:34:13;99575.81;;;7.33;100.00
14242;BME280;7205;50.864;12.766;2023-02-12T05:36:39;99579.16;;;7.35;100.00
14242;BME280;7205;50.864;12.766;2023-02-12T05:39:06;99577.25;;;7.37;100.00
14242;BME280;7205;50.864;12.766;2023-02-12T05:41:33;99576.44;;;7.36;100.00
14242;BME280;7205;50.864;12.766;2023-02-12T05:44:00;99586.81;;;7.38;100.00
14242;BME280;7205;50.864;12.766;2023-02-12T05:46:27;99585.97;;;7.37;100.00
14242;BME280;7205;50.864;12.766;2023-02-12T05:48:54;99585.25;;;7.35;100.00
14242;BME280;7205;50.864;12.766;2023-02-12T05:51:23;99580.84;;;7.36;100.00
14242;BME280;7205;50.864;12.766;2023-02-12T05:53:54;99578.09;;;7.37;100.00
14242;BME280;7205;50.864;12.766;2023-02-12T05:56:23;99582.38;;;7.38;100.00
14242;BME280;7205;50.864;12.766;2023-02-12T05:58:53;99587.56;;;7.40;100.00
14242;BME280;7205;50.864;12.766;2023-02-12T06:01:21;99582.19;;;7.41;100.00
14242;BME280;7205;50.864;12.766;2023-02-12T06:03:48;99583.13;;;7.40;100.00
14242;BME280;7205;50.864;12.766;2023-02-12T06:06:15;99593.53;;;7.42;100.00
14242;BME280;7205;50.864;12.766;2023-02-12T06:08:46;99594.28;;;7.44;100.00
14242;BME280;7205;50.864;12.766;2023-02-12T06:11:14;99598.50;;;7.46;100.00
14242;BME280;7205;50.864;12.766;2023-02-12T06:13:42;99602.78;;;7.47;100.00
14242;BME280;7205;50.864;12.766;2023-02-12T06:16:17;99595.63;;;7.49;100.00
14242;BME280;7205;50.864;12.766;2023-02-12T06:18:44;99599.81;;;7.52;100.00
14242;BME280;7205;50.864;12.766;2023-02-12T06:21:11;99602.97;;;7.57;100.00
14242;BME280;7205;50.864;12.766;2023-02-12T06:23:38;99606.22;;;7.60;100.00
14242;BME280;7205;50.864;12.766;2023-02-12T06:26:06;99606.84;;;7.64;100.00
14242;BME280;7205;50.864;12.766;2023-02-12T06:28:33;99607.59;;;7.66;100.00
14242;BME280;7205;50.864;12.766;2023-02-12T06:31:00;99620.41;;;7.71;100.00
14242;BME280;7205;50.864;12.766;2023-02-12T06:33:27;99618.41;;;7.74;100.00
14242;BME280;7205;50.864;12.766;2023-02-12T06:35:53;99619.88;;;7.78;100.00
14242;BME280;7205;50.864;12.766;2023-02-12T06:38:20;99622.28;;;7.81;100.00
14242;BME280;7205;50.864;12.766;2023-02-12T06:40:47;99622.16;;;7.83;100.00
14242;BME280;7205;50.864;12.766;2023-02-12T06:43:15;99626.50;;;7.84;100.00
14242;BME280;7205;50.864;12.766;2023-02-12T06:45:42;99629.13;;;7.84;100.00
14242;BME280;7205;50.864;12.766;2023-02-12T06:48:09;99632.47;;;7.86;100.00
14242;BME280;7205;50.864;12.766;2023-02-12T06:50:36;99636.78;;;7.87;100.00
14242;BME280;7205;50.864;12.766;2023-02-12T06:53:02;99629.63;;;7.89;100.00
14242;BME280;7205;50.864;12.766;2023-02-12T06:55:29;99640.06;;;7.90;100.00
14242;BME280;7205;50.864;12.766;2023-02-12T06:57:56;99634.06;;;7.88;100.00
14242;BME280;7205;50.864;12.766;2023-02-12T07:00:24;99637.59;;;7.87;100.00
14242;BME280;7205;50.864;12.766;2023-02-12T07:02:52;99641.09;;;7.88;100.00
14242;BME280;7205;50.864;12.766;2023-02-12T07:05:19;99640.97;;;7.89;100.00
14242;BME280;7205;50.864;12.766;2023-02-12T07:07:46;99639.94;;;7.92;100.00
14242;BME280;7205;50.864;12.766;2023-02-12T07:10:13;99647.50;;;7.96;100.00
14242;BME280;7205;50.864;12.766;2023-02-12T07:12:40;99655.03;;;8.01;100.00
14242;BME280;7205;50.864;12.766;2023-02-12T07:15:07;99658.41;;;8.03;100.00
14242;BME280;7205;50.864;12.766;2023-02-12T07:17:36;99663.34;;;8.07;100.00
14242;BME280;7205;50.864;12.766;2023-02-12T07:20:03;99666.69;;;8.09;100.00
14242;BME280;7205;50.864;12.766;2023-02-12T07:22:29;99665.66;;;8.12;100.00
14242;BME280;7205;50.864;12.766;2023-02-12T07:24:56;99665.53;;;8.13;100.00
14242;BME280;7205;50.864;12.766;2023-02-12T07:27:23;99662.81;;;8.15;100.00
14242;BME280;7205;50.864;12.766;2023-02-12T07:29:50;99666.16;;;8.17;100.00
14242;BME280;7205;50.864;12.766;2023-02-12T07:32:17;99665.22;;;8.18;100.00
14242;BME280;7205;50.864;12.766;2023-02-12T07:34:45;99664.28;;;8.19;100.00
14242;BME280;7205;50.864;12.766;2023-02-12T07:37:12;99663.31;;;8.20;100.00
14242;BME280;7205;50.864;12.766;2023-02-12T07:39:39;99669.22;;;8.23;100.00
14242;BME280;7205;50.864;12.766;2023-02-12T07:42:06;99670.78;;;8.26;100.00
14242;BME280;7205;50.864;12.766;2023-02-12T07:44:33;99667.09;;;8.28;100.00
14242;BME280;7205;50.864;12.766;2023-02-12T07:47:00;99664.38;;;8.30;100.00
14242;BME280;7205;50.864;12.766;2023-02-12T07:49:28;99672.03;;;8.33;100.00
14242;BME280;7205;50.864;12.766;2023-02-12T07:51:56;99670.88;;;8.37;100.00
14242;BME280;7205;50.864;12.766;2023-02-12T07:54:23;99670.63;;;8.40;100.00
14242;BME280;7205;50.864;12.766;2023-02-12T07:56:49;99669.56;;;8.42;100.00
14242;BME280;7205;50.864;12.766;2023-02-12T07:59:17;99672.00;;;8.45;100.00
14242;BME280;7205;50.864;12.766;2023-02-12T08:01:46;99670.06;;;8.47;100.00
14242;BME280;7205;50.864;12.766;2023-02-12T08:04:16;99673.44;;;8.49;100.00
14242;BME280;7205;50.864;12.766;2023-02-12T08:06:45;99668.06;;;8.51;100.00
14242;BME280;7205;50.864;12.766;2023-02-12T08:09:15;99675.03;;;8.52;100.00
14242;BME280;7205;50.864;12.766;2023-02-12T08:11:42;99672.50;;;8.50;100.00
14242;BME280;7205;50.864;12.766;2023-02-12T08:14:10;99675.25;;;8.49;100.00
14242;BME280;7205;50.864;12.766;2023-02-12T08:16:39;99676.91;;;8.50;100.00
14242;BME280;7205;50.864;12.766;2023-02-12T08:19:06;99674.28;;;8.50;100.00
14242;BME280;7205;50.864;12.766;2023-02-12T08:21:33;99677.75;;;8.50;100.00
14242;BME280;7205;50.864;12.766;2023-02-12T08:24:01;99676.06;;;8.49;100.00
14242;BME280;7205;50.864;12.766;2023-02-12T08:26:30;99676.06;;;8.49;100.00
14242;BME280;7205;50.864;12.766;2023-02-12T08:28:59;99681.34;;;8.49;100.00
14242;BME280;7205;50.864;12.766;2023-02-12T08:31:28;99680.72;;;8.46;100.00
14242;BME280;7205;50.864;12.766;2023-02-12T08:33:55;99682.84;;;8.41;100.00
14242;BME280;7205;50.864;12.766;2023-02-12T08:36:24;99689.41;;;8.35;100.00
14242;BME280;7205;50.864;12.766;2023-02-12T08:38:51;99681.94;;;8.29;100.00
14242;BME280;7205;50.864;12.766;2023-02-12T08:41:19;99677.75;;;8.27;100.00
14242;BME280;7205;50.864;12.766;2023-02-12T08:43:48;99687.44;;;8.26;100.00
14242;BME280;7205;50.864;12.766;2023-02-12T08:46:18;99686.38;;;8.29;100.00
14242;BME280;7205;50.864;12.766;2023-02-12T08:48:46;99687.31;;;8.28;100.00
14242;BME280;7205;50.864;12.766;2023-02-12T08:51:16;99693.53;;;8.27;100.00
14242;BME280;7205;50.864;12.766;2023-02-12T08:53:45;99692.69;;;8.26;100.00
14242;BME280;7205;50.864;12.766;2023-02-12T08:56:15;99693.44;;;8.28;100.00
14242;BME280;7205;50.864;12.766;2023-02-12T08:58:42;99695.22;;;8.28;100.00
14242;BME280;7205;50.864;12.766;2023-02-12T09:01:13;99694.34;;;8.27;100.00
14242;BME280;7205;50.864;12.766;2023-02-12T09:03:57;99702.16;;;8.29;100.00
14242;BME280;7205;50.864;12.766;2023-02-12T09:06:38;99700.25;;;8.31;100.00
14242;BME280;7205;50.864;12.766;2023-02-12T09:09:20;99704.59;;;8.32;100.00
14242;BME280;7205;50.864;12.766;2023-02-12T09:11:51;99700.97;;;8.33;100.00
14242;BME280;7205;50.864;12.766;2023-02-12T09:14:18;99706.03;;;8.36;100.00
14242;BME280;7205;50.864;12.766;2023-02-12T09:16:49;99707.59;;;8.38;100.00
14242;BME280;7205;50.864;12.766;2023-02-12T09:20:22;99710.88;;;8.42;100.00
14242;BME280;7205;50.864;12.766;2023-02-12T09:23:05;99718.41;;;8.46;100.00
14242;BME280;7205;50.864;12.766;2023-02-12T09:25:32;99721.91;;;8.47;100.00
14242;BME280;7205;50.864;12.766;2023-02-12T09:28:00;99730.44;;;8.50;100.00
14242;BME280;7205;50.864;12.766;2023-02-12T09:30:27;99731.97;;;8.53;100.00
14242;BME280;7205;50.864;12.766;2023-02-12T09:32:55;99742.41;;;8.54;100.00
14242;BME280;7205;50.864;12.766;2023-02-12T09:35:23;99742.28;;;8.56;100.00
14242;BME280;7205;50.864;12.766;2023-02-12T09:37:51;99748.41;;;8.56;100.00
14242;BME280;7205;50.864;12.766;2023-02-12T09:40:21;99748.28;;;8.58;100.00
14242;BME280;7205;50.864;12.766;2023-02-12T09:43:01;99754.19;;;8.61;100.00
14242;BME280;7205;50.864;12.766;2023-02-12T09:45:33;99757.31;;;8.66;100.00
14242;BME280;7205;50.864;12.766;2023-02-12T09:48:23;99754.47;;;8.69;100.00
14242;BME280;7205;50.864;12.766;2023-02-12T09:50:55;99756.78;;;8.74;100.00
14242;BME280;7205;50.864;12.766;2023-02-12T09:53:26;99761.09;;;8.75;100.00
14242;BME280;7205;50.864;12.766;2023-02-12T09:55:54;99753.81;;;8.78;100.00
14242;BME280;7205;50.864;12.766;2023-02-12T09:58:29;99761.47;;;8.81;100.00
14242;BME280;7205;50.864;12.766;2023-02-12T10:01:00;99761.34;;;8.83;100.00
14242;BME280;7205;50.864;12.766;2023-02-12T10:03:29;99775.38;;;8.83;100.00
14242;BME280;7205;50.864;12.766;2023-02-12T10:06:00;99757.16;;;8.80;100.00
14242;BME280;7205;50.864;12.766;2023-02-12T10:08:54;99767.59;;;8.82;100.00
14242;BME280;7205;50.864;12.766;2023-02-12T10:11:49;99766.41;;;8.86;100.00
14242;BME280;7205;50.864;12.766;2023-02-12T10:14:33;99777.44;;;8.91;100.00
14242;BME280;7205;50.864;12.766;2023-02-12T10:17:12;99773.03;;;8.92;100.00
14242;BME280;7205;50.864;12.766;2023-02-12T10:20:02;99771.47;;;8.89;100.00
14242;BME280;7205;50.864;12.766;2023-02-12T10:22:40;99780.06;;;8.91;100.00
14242;BME280;7205;50.864;12.766;2023-02-12T10:25:18;99783.31;;;8.95;100.00
14242;BME280;7205;50.864;12.766;2023-02-12T10:27:49;99781.19;;;9.00;100.00
14242;BME280;7205;50.864;12.766;2023-02-12T10:30:19;99783.41;;;9.06;100.00
14242;BME280;7205;50.864;12.766;2023-02-12T10:32:52;99782.94;;;9.12;100.00
14242;BME280;7205;50.864;12.766;2023-02-12T10:35:22;99778.91;;;9.19;100.00
14242;BME280;7205;50.864;12.766;2023-02-12T10:37:55;99781.06;;;9.25;100.00
14242;BME280;7205;50.864;12.766;2023-02-12T10:40:25;99777.03;;;9.32;100.00
14242;BME280;7205;50.864;12.766;2023-02-12T10:42:58;99772.25;;;9.37;100.00
14242;BME280;7205;50.864;12.766;2023-02-12T10:45:29;99777.41;;;9.38;100.00
14242;BME280;7205;50.864;12.766;2023-02-12T10:48:06;99770.22;;;9.40;100.00
14242;BME280;7205;50.864;12.766;2023-02-12T10:50:41;99768.66;;;9.38;100.00
14242;BME280;7205;50.864;12.766;2023-02-12T10:53:25;99763.59;;;9.35;100.00
14242;BME280;7205;50.864;12.766;2023-02-12T10:56:11;99754.16;;;9.32;100.00
14242;BME280;7205;50.864;12.766;2023-02-12T10:58:50;99754.38;;;9.29;100.00
14242;BME280;7205;50.864;12.766;2023-02-12T11:01:20;99752.81;;;9.27;100.00
14242;BME280;7205;50.864;12.766;2023-02-12T11:03:50;99748.69;;;9.23;100.00
14242;BME280;7205;50.864;12.766;2023-02-12T11:06:21;99755.91;;;9.21;100.00
14242;BME280;7205;50.864;12.766;2023-02-12T11:08:50;99752.66;;;9.17;100.00
14242;BME280;7205;50.864;12.766;2023-02-12T11:11:20;99743.53;;;9.10;100.00
14242;BME280;7205;50.864;12.766;2023-02-12T11:13:53;99750.81;;;9.07;100.00
14242;BME280;7205;50.864;12.766;2023-02-12T11:16:30;99743.03;;;9.05;100.00
14242;BME280;7205;50.864;12.766;2023-02-12T11:19:00;99743.75;;;9.07;100.00
14242;BME280;7205;50.864;12.766;2023-02-12T11:21:29;99744.56;;;9.08;100.00
14242;BME280;7205;50.864;12.766;2023-02-12T11:23:57;99744.69;;;9.06;100.00
14242;BME280;7205;50.864;12.766;2023-02-12T11:26:43;99744.69;;;9.06;100.00
14242;BME280;7205;50.864;12.766;2023-02-12T11:29:17;99743.88;;;9.06;100.00
14242;BME280;7205;50.864;12.766;2023-02-12T11:31:59;99741.34;;;9.04;100.00
14242;BME280;7205;50.864;12.766;2023-02-12T11:34:27;99735.00;;;9.07;100.00
14242;BME280;7205;50.864;12.766;2023-02-12T11:36:56;99749.53;;;9.12;100.00
14242;BME280;7205;50.864;12.766;2023-02-12T11:39:27;99740.66;;;9.13;100.00
14242;BME280;7205;50.864;12.766;2023-02-12T11:41:55;99748.19;;;9.18;100.00
14242;BME280;7205;50.864;12.766;2023-02-12T11:44:26;99745.47;;;9.19;100.00
14242;BME280;7205;50.864;12.766;2023-02-12T11:46:57;99747.88;;;9.22;100.00
14242;BME280;7205;50.864;12.766;2023-02-12T11:49:28;99742.63;;;9.22;100.00
14242;BME280;7205;50.864;12.766;2023-02-12T11:52:05;99733.34;;;9.17;100.00
14242;BME280;7205;50.864;12.766;2023-02-12T11:54:38;99736.97;;;9.16;100.00
14242;BME280;7205;50.864;12.766;2023-02-12T11:57:06;99735.88;;;9.18;100.00
14242;BME280;7205;50.864;12.766;2023-02-12T11:59:35;99742.72;;;9.21;100.00
14242;BME280;7205;50.864;12.766;2023-02-12T12:02:15;99736.72;;;9.19;100.00
14242;BME280;7205;50.864;12.766;2023-02-12T12:04:47;99746.06;;;9.23;100.00
14242;BME280;7205;50.864;12.766;2023-02-12T12:07:23;99746.06;;;9.23;100.00
14242;BME280;7205;50.864;12.766;2023-02-12T12:09:56;99741.53;;;9.25;100.00
14242;BME280;7205;50.864;12.766;2023-02-12T12:12:38;99735.09;;;9.29;100.00
14242;BME280;7205;50.864;12.766;2023-02-12T12:15:14;99736.88;;;9.28;100.00
14242;BME280;7205;50.864;12.766;2023-02-12T12:18:08;99732.44;;;9.29;100.00
14242;BME280;7205;50.864;12.766;2023-02-12T12:21:02;99734.97;;;9.30;100.00
14242;BME280;7205;50.864;12.766;2023-02-12T12:23:39;99730.66;;;9.29;100.00
14242;BME280;7205;50.864;12.766;2023-02-12T12:26:13;99736.44;;;9.34;100.00
14242;BME280;7205;50.864;12.766;2023-02-12T12:28:44;99730.53;;;9.31;100.00
14242;BME280;7205;50.864;12.766;2023-02-12T12:31:16;99736.44;;;9.34;100.00
14242;BME280;7205;50.864;12.766;2023-02-12T12:33:46;99732.69;;;9.37;100.00
14242;BME280;7205;50.864;12.766;2023-02-12T12:36:36;99725.41;;;9.40;100.00
14242;BME280;7205;50.864;12.766;2023-02-12T12:39:15;99728.03;;;9.40;100.00
14242;BME280;7205;50.864;12.766;2023-02-12T12:41:54;99722.88;;;9.39;100.00
14242;BME280;7205;50.864;12.766;2023-02-12T12:44:34;99728.16;;;9.39;100.00
14242;BME280;7205;50.864;12.766;2023-02-12T12:47:16;99722.75;;;9.40;100.00
14242;BME280;7205;50.864;12.766;2023-02-12T12:50:01;99728.53;;;9.45;100.00
14242;BME280;7205;50.864;12.766;2023-02-12T12:52:44;99723.97;;;9.47;100.00
14242;BME280;7205;50.864;12.766;2023-02-12T12:55:31;99721.47;;;9.46;100.00
14242;BME280;7205;50.864;12.766;2023-02-12T12:58:10;99723.38;;;9.44;100.00
14242;BME280;7205;50.864;12.766;2023-02-12T13:00:47;99727.69;;;9.45;100.00
14242;BME280;7205;50.864;12.766;2023-02-12T13:06:31;99726.13;;;9.42;100.00
14242;BME280;7205;50.864;12.766;2023-02-12T13:09:32;99734.16;;;9.41;100.00
14242;BME280;7205;50.864;12.766;2023-02-12T13:12:38;99734.03;;;9.42;100.00
14242;BME280;7205;50.864;12.766;2023-02-12T13:15:18;99727.91;;;9.42;100.00
14242;BME280;7205;50.864;12.766;2023-02-12T13:17:53;99725.41;;;9.40;100.00
14242;BME280;7205;50.864;12.766;2023-02-12T13:20:40;99730.44;;;9.43;100.00
14242;BME280;7205;50.864;12.766;2023-02-12T13:23:22;99717.25;;;9.43;100.00
14242;BME280;7205;50.864;12.766;2023-02-12T13:25:57;99724.59;;;9.51;100.00
14242;BME280;7205;50.864;12.766;2023-02-12T13:28:33;99714.91;;;9.62;100.00
14242;BME280;7205;50.864;12.766;2023-02-12T13:31:02;99715.63;;;9.75;100.00
14242;BME280;7205;50.864;12.766;2023-02-12T13:33:41;99706.50;;;9.90;100.00
14242;BME280;7205;50.864;12.766;2023-02-12T13:36:28;99705.69;;;10.01;100.00
14242;BME280;7205;50.864;12.766;2023-02-12T13:39:06;99703.97;;;10.00;100.00
14242;BME280;7205;50.864;12.766;2023-02-12T13:42:07;99700.06;;;9.94;100.00
14242;BME280;7205;50.864;12.766;2023-02-12T13:44:49;99693.69;;;9.86;100.00
14242;BME280;7205;50.864;12.766;2023-02-12T13:47:27;99708.91;;;9.82;99.57
14242;BME280;7205;50.864;12.766;2023-02-12T13:49:59;99700.53;;;9.77;99.83
14242;BME280;7205;50.864;12.766;2023-02-12T13:52:34;99698.22;;;9.73;99.19
14242;BME280;7205;50.864;12.766;2023-02-12T13:55:13;99707.34;;;9.69;98.85
14242;BME280;7205;50.864;12.766;2023-02-12T14:00:59;99706.75;;;9.54;98.15
14242;BME280;7205;50.864;12.766;2023-02-12T14:03:28;99702.66;;;9.50;97.81
14242;BME280;7205;50.864;12.766;2023-02-12T14:06:10;99702.88;;;9.47;98.62
14242;BME280;7205;50.864;12.766;2023-02-12T14:08:39;99703.94;;;9.45;98.03